createdAt,value
2019-01-23T00:01:01.231Z,-2.67
2019-01-23T00:05:06.393Z,-2.63
2019-01-23T00:09:11.476Z,-2.66
2019-01-23T00:13:16.504Z,-2.66
2019-01-23T00:17:21.546Z,-2.59
2019-01-23T00:21:26.673Z,-2.69
2019-01-23T00:25:31.765Z,-2.64
2019-01-23T00:29:37.003Z,-2.62
2019-01-23T00:33:41.983Z,-2.65
2019-01-23T00:37:47.086Z,-2.70
2019-01-23T00:41:52.180Z,-2.67
2019-01-23T00:45:57.425Z,-2.79
2019-01-23T00:50:02.452Z,-2.88
2019-01-23T00:54:07.770Z,-2.87
2019-01-23T00:58:12.832Z,-2.84
2019-01-23T01:02:17.935Z,-2.95
2019-01-23T01:06:23.942Z,-2.96
2019-01-23T01:10:29.078Z,-2.91
2019-01-23T01:14:34.131Z,-2.94
2019-01-23T01:18:40.137Z,-2.87
2019-01-23T01:22:45.239Z,-2.81
2019-01-23T01:26:50.296Z,-2.82
2019-01-23T01:30:55.377Z,-2.84
2019-01-23T01:35:00.413Z,-2.85
2019-01-23T01:39:08.526Z,-2.87
2019-01-23T01:43:13.621Z,-2.89
2019-01-23T01:47:18.726Z,-2.87
2019-01-23T01:51:24.112Z,-2.81
2019-01-23T01:55:29.222Z,-2.83
2019-01-23T01:59:34.274Z,-2.69
2019-01-23T02:03:39.398Z,-2.70
2019-01-23T02:07:44.543Z,-2.69
2019-01-23T02:11:50.629Z,-2.71
2019-01-23T02:15:55.676Z,-2.65
2019-01-23T02:20:00.807Z,-2.68
2019-01-23T02:24:05.901Z,-2.68
2019-01-23T02:28:11.260Z,-2.60
2019-01-23T02:32:16.386Z,-2.56
2019-01-23T02:36:21.516Z,-2.63
2019-01-23T02:40:26.586Z,-2.57
2019-01-23T02:44:31.740Z,-2.55
2019-01-23T02:48:38.184Z,-2.53
2019-01-23T02:52:43.295Z,-2.53
2019-01-23T02:56:48.369Z,-2.56
2019-01-23T03:00:53.359Z,-2.60
2019-01-23T03:04:59.093Z,-2.56
2019-01-23T03:09:05.663Z,-2.53
2019-01-23T03:13:10.720Z,-2.62
2019-01-23T03:17:16.116Z,-2.56
2019-01-23T03:21:21.249Z,-2.58
2019-01-23T03:25:26.401Z,-2.46
2019-01-23T03:29:31.798Z,-2.58
2019-01-23T03:33:36.917Z,-2.65
2019-01-23T03:37:42.029Z,-2.68
2019-01-23T03:41:47.155Z,-2.74
2019-01-23T03:45:52.221Z,-2.75
2019-01-23T03:49:57.402Z,-2.78
2019-01-23T03:54:02.438Z,-2.80
2019-01-23T03:58:07.818Z,-2.82
2019-01-23T04:02:12.972Z,-2.83
2019-01-23T04:06:18.049Z,-2.82
2019-01-23T04:10:23.062Z,-2.92
2019-01-23T04:14:28.244Z,-2.92
2019-01-23T04:18:33.317Z,-3.00
2019-01-23T04:22:38.452Z,-2.95
2019-01-23T04:26:43.446Z,-2.95
2019-01-23T04:30:48.539Z,-3.03
2019-01-23T04:34:53.609Z,-2.96
2019-01-23T04:38:58.709Z,-2.85
2019-01-23T04:43:03.812Z,-2.95
2019-01-23T04:47:09.164Z,-2.94
2019-01-23T04:51:35.479Z,-2.91
2019-01-23T04:55:41.105Z,-2.88
2019-01-23T04:59:46.925Z,-2.95
2019-01-23T05:03:52.234Z,-2.92
2019-01-23T05:07:57.327Z,-2.99
2019-01-23T05:12:02.374Z,-3.02
2019-01-23T05:16:07.414Z,-3.08
2019-01-23T05:20:12.734Z,-3.10
2019-01-23T05:24:17.826Z,-3.22
2019-01-23T05:28:22.865Z,-3.39
2019-01-23T05:32:27.891Z,-3.36
2019-01-23T05:36:32.938Z,-3.43
2019-01-23T05:40:38.218Z,-3.42
2019-01-23T05:44:43.273Z,-3.42
2019-01-23T05:48:48.346Z,-3.44
2019-01-23T05:52:54.807Z,-3.41
2019-01-23T05:56:59.748Z,-3.34
2019-01-23T06:01:04.930Z,-3.40
2019-01-23T06:05:10.128Z,-3.44
2019-01-23T06:09:15.282Z,-3.45
2019-01-23T06:13:20.310Z,-3.55
2019-01-23T06:17:25.488Z,-3.57
2019-01-23T06:21:30.614Z,-3.67
2019-01-23T06:25:35.798Z,-3.72
2019-01-23T06:29:40.843Z,-3.66
2019-01-23T06:33:46.318Z,-3.67
2019-01-23T06:37:51.532Z,-3.80
2019-01-23T06:41:56.676Z,-3.11
2019-01-23T06:46:02.593Z,-3.07
2019-01-23T06:50:10.092Z,-2.42
2019-01-23T06:54:15.231Z,-2.67
2019-01-23T06:58:20.361Z,-2.74
2019-01-23T07:02:25.631Z,-3.19
2019-01-23T07:06:30.709Z,-3.91
2019-01-23T07:10:35.802Z,-3.93
2019-01-23T07:14:40.921Z,-4.06
2019-01-23T07:18:46.068Z,-4.06
2019-01-23T07:22:51.155Z,-4.04
2019-01-23T07:26:56.266Z,-4.04
2019-01-23T07:31:01.376Z,-4.07
2019-01-23T07:35:06.586Z,-3.98
2019-01-23T07:39:11.860Z,-4.01
2019-01-23T07:43:17.056Z,-3.96
2019-01-23T07:47:22.200Z,-3.73
2019-01-23T07:51:27.388Z,-3.54
2019-01-23T07:55:32.427Z,-3.58
2019-01-23T07:59:37.590Z,-3.35
2019-01-23T08:03:44.133Z,-3.35
2019-01-23T08:07:50.617Z,-3.25
2019-01-23T08:11:55.701Z,-3.03
2019-01-23T08:16:00.816Z,-2.91
2019-01-23T08:20:08.455Z,-2.83
2019-01-23T08:24:13.596Z,-2.70
2019-01-23T08:28:18.756Z,-2.55
2019-01-23T08:32:24.508Z,-2.47
2019-01-23T08:36:29.804Z,-2.37
2019-01-23T08:40:35.078Z,-2.34
2019-01-23T08:44:40.260Z,-2.24
2019-01-23T08:48:45.282Z,-2.18
2019-01-23T08:52:50.435Z,-2.07
2019-01-23T08:56:55.514Z,-2.02
2019-01-23T09:01:00.713Z,-1.98
2019-01-23T09:05:06.943Z,-1.99
2019-01-23T09:09:12.426Z,-1.94
2019-01-23T09:13:17.526Z,-1.93
2019-01-23T09:17:22.606Z,-1.91
2019-01-23T09:21:27.772Z,-1.82
2019-01-23T09:25:32.914Z,-1.61
2019-01-23T09:29:38.146Z,-1.78
2019-01-23T09:34:08.449Z,-1.80
2019-01-23T09:38:43.124Z,-1.65
2019-01-23T09:43:05.377Z,-1.67
2019-01-23T09:47:40.208Z,-1.60
2019-01-23T09:52:17.758Z,-1.49
2019-01-23T09:56:23.315Z,-1.33
2019-01-23T10:00:31.700Z,-1.26
2019-01-23T10:04:36.550Z,-1.28
2019-01-23T10:08:41.746Z,-0.85
2019-01-23T10:12:46.876Z,-1.07
2019-01-23T10:16:52.109Z,-1.04
2019-01-23T10:20:57.632Z,-0.81
2019-01-23T10:25:03.109Z,-1.18
2019-01-23T10:29:10.859Z,-1.10
2019-01-23T10:33:17.332Z,-1.01
2019-01-23T10:37:22.554Z,-0.87
2019-01-23T10:41:27.966Z,-0.79
2019-01-23T10:45:33.332Z,-0.57
2019-01-23T10:49:38.382Z,-0.63
2019-01-23T10:53:43.515Z,-0.38
2019-01-23T10:57:48.709Z,-0.17
2019-01-23T11:01:53.830Z,-0.42
2019-01-23T11:05:59.101Z,0.19
2019-01-23T11:10:05.613Z,-0.66
2019-01-23T11:14:10.940Z,-0.67
2019-01-23T11:18:16.374Z,-0.67
2019-01-23T11:22:21.337Z,-1.17
2019-01-23T11:26:26.454Z,-1.12
2019-01-23T11:30:31.540Z,-1.08
2019-01-23T11:34:36.646Z,-1.12
2019-01-23T11:38:41.886Z,-0.89
2019-01-23T11:42:47.007Z,-0.79
2019-01-23T11:46:52.114Z,-0.79
2019-01-23T11:50:57.089Z,-0.69
2019-01-23T11:55:02.131Z,-0.72
2019-01-23T11:59:07.182Z,-1.03
2019-01-23T12:03:13.317Z,-0.63
2019-01-23T12:07:18.558Z,-0.60
2019-01-23T12:11:23.876Z,-0.86
2019-01-23T12:15:30.146Z,-0.76
2019-01-23T12:19:35.516Z,-0.57
2019-01-23T12:23:40.563Z,-0.68
2019-01-23T12:27:46.717Z,-0.77
2019-01-23T12:31:51.803Z,-0.65
2019-01-23T12:35:56.833Z,-0.57
2019-01-23T12:40:02.413Z,-0.44
2019-01-23T12:44:07.927Z,-0.42
2019-01-23T12:48:13.068Z,-0.40
2019-01-23T12:52:18.202Z,-0.05
2019-01-23T12:56:23.359Z,-0.05
2019-01-23T13:00:30.063Z,-0.30
2019-01-23T13:04:35.280Z,-0.40
2019-01-23T13:08:40.465Z,-0.22
2019-01-23T13:12:46.023Z,-0.34
2019-01-23T13:16:51.072Z,0.00
2019-01-23T13:20:56.126Z,-0.19
2019-01-23T13:25:01.165Z,-0.13
2019-01-23T13:29:06.469Z,-0.29
2019-01-23T13:33:11.939Z,-0.35
2019-01-23T13:37:16.991Z,-0.68
2019-01-23T13:41:22.147Z,-0.57
2019-01-23T13:45:27.233Z,-0.54
2019-01-23T13:49:33.381Z,-0.64
2019-01-23T13:53:38.578Z,-0.59
2019-01-23T13:57:43.672Z,-0.48
2019-01-23T14:01:48.806Z,-0.52
2019-01-23T14:05:53.884Z,-0.37
2019-01-23T14:09:59.306Z,0.17
2019-01-23T14:14:05.236Z,-0.33
2019-01-23T14:18:11.093Z,0.02
2019-01-23T14:22:16.214Z,0.08
2019-01-23T14:26:21.311Z,0.25
2019-01-23T14:30:29.156Z,0.67
2019-01-23T14:34:34.219Z,0.06
2019-01-23T14:38:40.321Z,0.16
2019-01-23T14:42:45.386Z,0.16
2019-01-23T14:46:50.517Z,-0.33
2019-01-23T14:50:56.689Z,-0.33
2019-01-23T14:55:01.806Z,-0.18
2019-01-23T15:03:10.212Z,-0.09
2019-01-23T15:07:15.284Z,-0.50
2019-01-23T15:11:20.388Z,-0.27
2019-01-23T15:15:25.621Z,-0.55
2019-01-23T15:19:30.733Z,-0.35
2019-01-23T15:23:35.883Z,-0.79
2019-01-23T15:27:40.970Z,-0.77
2019-01-23T15:36:23.646Z,-0.75
2019-01-23T15:40:31.321Z,-0.78
2019-01-23T15:44:36.463Z,-0.87
2019-01-23T15:48:41.566Z,-0.85
2019-01-23T15:52:46.632Z,-0.85
2019-01-23T15:56:53.352Z,-0.96
2019-01-23T16:00:58.495Z,-0.99
2019-01-23T16:05:14.861Z,-0.97
2019-01-23T16:13:42.194Z,-1.12
2019-01-23T16:18:02.730Z,-0.95
2019-01-23T16:22:27.093Z,-1.18
2019-01-23T16:35:19.072Z,-1.25
2019-01-23T16:44:45.406Z,-1.22
2019-01-23T16:48:50.509Z,-1.30
2019-01-23T16:52:55.688Z,-1.37
2019-01-23T16:57:00.670Z,-1.39
2019-01-23T17:01:05.773Z,-1.39
2019-01-23T17:09:49.231Z,-1.46
2019-01-23T17:13:54.494Z,-1.47
2019-01-23T17:17:59.735Z,-1.48
2019-01-23T17:22:16.698Z,-1.52
2019-01-23T17:26:21.822Z,-1.49
2019-01-23T17:30:26.986Z,-1.60
2019-01-23T17:34:32.169Z,-1.54
2019-01-23T17:43:19.040Z,-1.70
2019-01-23T17:51:54.968Z,-1.71
2019-01-23T17:56:11.940Z,-1.77
2019-01-23T18:04:39.624Z,-1.82
2019-01-23T18:08:44.783Z,-1.83
2019-01-23T18:12:49.889Z,-1.94
2019-01-23T18:17:06.770Z,-1.90
2019-01-23T18:21:12.966Z,-1.91
2019-01-23T18:25:18.418Z,-1.83
2019-01-23T18:29:35.163Z,-1.80
2019-01-23T18:33:56.407Z,-1.87
2019-01-23T18:38:39.657Z,-1.86
2019-01-23T18:43:15.637Z,-1.93
2019-01-23T18:47:59.158Z,-1.92
2019-01-23T18:52:23.397Z,-1.92
2019-01-23T18:56:28.511Z,-1.85
2019-01-23T19:00:33.677Z,-1.98
2019-01-23T19:04:38.836Z,-1.93
2019-01-23T19:08:43.942Z,-2.00
2019-01-23T19:12:49.137Z,-1.93
2019-01-23T19:16:54.246Z,-1.98
2019-01-23T19:21:18.473Z,-1.99
2019-01-23T19:25:23.600Z,-2.05
2019-01-23T19:29:28.648Z,-2.05
2019-01-23T19:33:33.815Z,-2.09
2019-01-23T19:41:56.424Z,-2.09
2019-01-23T19:46:01.565Z,-2.22
2019-01-23T19:50:08.263Z,-2.19
2019-01-23T19:54:13.332Z,-2.16
2019-01-23T19:58:18.460Z,-2.19
2019-01-23T20:06:40.481Z,-2.26
2019-01-23T20:15:16.644Z,-2.26
2019-01-23T20:19:29.242Z,-2.34
2019-01-23T20:23:34.737Z,-2.25
2019-01-23T20:27:59.011Z,-2.32
2019-01-23T20:32:16.078Z,-2.40
2019-01-23T20:36:21.274Z,-2.31
2019-01-23T20:40:26.338Z,-2.45
2019-01-23T20:44:50.666Z,-2.41
2019-01-23T20:48:55.860Z,-2.37
2019-01-23T20:53:01.339Z,-2.35
2019-01-23T20:57:06.590Z,-2.43
2019-01-23T21:01:23.540Z,-2.43
2019-01-23T21:05:40.063Z,-2.43
2019-01-23T21:09:45.325Z,-2.44
2019-01-23T21:13:50.555Z,-2.40
2019-01-23T21:18:07.795Z,-2.42
2019-01-23T21:22:12.885Z,-2.44
2019-01-23T21:31:01.043Z,-2.49
2019-01-23T21:35:06.380Z,-2.52
2019-01-23T21:39:11.585Z,-2.40
2019-01-23T21:43:35.787Z,-2.56
2019-01-23T21:47:40.915Z,-2.59
2019-01-23T21:51:46.077Z,-2.55
2019-01-23T21:55:51.575Z,-2.61
2019-01-23T21:59:56.670Z,-2.57
2019-01-23T22:04:01.731Z,-2.62
2019-01-23T22:12:56.724Z,-2.55
2019-01-23T22:26:07.670Z,-2.56
2019-01-23T22:30:21.121Z,-2.68
2019-01-23T22:34:26.211Z,-2.64
2019-01-23T22:38:31.277Z,-2.71
2019-01-23T22:42:36.381Z,-2.67
2019-01-23T22:46:41.539Z,-2.65
2019-01-23T22:51:05.706Z,-2.71
2019-01-23T22:55:11.265Z,-2.75
2019-01-23T22:59:16.306Z,-2.82
2019-01-23T23:03:21.932Z,-2.80
2019-01-23T23:07:26.988Z,-2.82
2019-01-23T23:20:31.472Z,-2.80
2019-01-23T23:24:55.612Z,-2.78
2019-01-23T23:33:17.949Z,-2.75
2019-01-23T23:41:39.837Z,-2.84
2019-01-23T23:45:44.898Z,-2.79
2019-01-23T23:49:50.158Z,-2.89
2019-01-23T23:58:24.916Z,-2.84
